sensor_id;sensor_type;location;lat;lon;timestamp;P1;durP1;ratioP1;P2;durP2;ratioP2
77544;SDS011;66672;50.328;7.610;2023-06-24T00:00:14;6.30;;;3.90;;
77544;SDS011;66672;50.328;7.610;2023-06-24T00:02:41;7.10;;;4.45;;
77544;SDS011;66672;50.328;7.610;2023-06-24T00:05:08;7.72;;;4.80;;
77544;SDS011;66672;50.328;7.610;2023-06-24T00:07:34;6.47;;;4.30;;
77544;SDS011;66672;50.328;7.610;2023-06-24T00:10:09;8.88;;;4.78;;
77544;SDS011;66672;50.328;7.610;2023-06-24T00:12:35;6.95;;;4.07;;
77544;SDS011;66672;50.328;7.610;2023-06-24T00:15:00;7.05;;;4.70;;
77544;SDS011;66672;50.328;7.610;2023-06-24T00:17:25;8.30;;;4.60;;
77544;SDS011;66672;50.328;7.610;2023-06-24T00:19:53;7.68;;;4.60;;
77544;SDS011;66672;50.328;7.610;2023-06-24T00:22:19;7.18;;;4.43;;
77544;SDS011;66672;50.328;7.610;2023-06-24T00:24:44;6.82;;;4.57;;
77544;SDS011;66672;50.328;7.610;2023-06-24T00:27:10;8.32;;;4.18;;
77544;SDS011;66672;50.328;7.610;2023-06-24T00:29:35;9.02;;;4.32;;
77544;SDS011;66672;50.328;7.610;2023-06-24T00:32:00;8.27;;;4.82;;
77544;SDS011;66672;50.328;7.610;2023-06-24T00:34:26;7.72;;;4.43;;
77544;SDS011;66672;50.328;7.610;2023-06-24T00:36:51;8.27;;;4.65;;
77544;SDS011;66672;50.328;7.610;2023-06-24T00:39:17;7.90;;;5.13;;
77544;SDS011;66672;50.328;7.610;2023-06-24T00:41:42;9.20;;;5.03;;
77544;SDS011;66672;50.328;7.610;2023-06-24T00:44:07;7.82;;;4.60;;
77544;SDS011;66672;50.328;7.610;2023-06-24T00:46:32;7.20;;;4.68;;
77544;SDS011;66672;50.328;7.610;2023-06-24T00:48:58;9.05;;;4.90;;
77544;SDS011;66672;50.328;7.610;2023-06-24T00:51:25;6.03;;;3.97;;
77544;SDS011;66672;50.328;7.610;2023-06-24T00:53:58;6.97;;;4.68;;
77544;SDS011;66672;50.328;7.610;2023-06-24T00:56:45;7.65;;;4.40;;
77544;SDS011;66672;50.328;7.610;2023-06-24T00:59:12;6.97;;;4.53;;
77544;SDS011;66672;50.328;7.610;2023-06-24T01:01:38;7.43;;;5.20;;
77544;SDS011;66672;50.328;7.610;2023-06-24T01:04:04;9.23;;;4.95;;
77544;SDS011;66672;50.328;7.610;2023-06-24T01:06:29;6.78;;;4.68;;
77544;SDS011;66672;50.328;7.610;2023-06-24T01:08:58;8.75;;;4.50;;
77544;SDS011;66672;50.328;7.610;2023-06-24T01:11:25;6.57;;;4.30;;
77544;SDS011;66672;50.328;7.610;2023-06-24T01:13:50;6.85;;;4.30;;
77544;SDS011;66672;50.328;7.610;2023-06-24T01:16:19;7.13;;;4.57;;
77544;SDS011;66672;50.328;7.610;2023-06-24T01:18:46;8.52;;;5.28;;
77544;SDS011;66672;50.328;7.610;2023-06-24T01:21:19;8.77;;;5.00;;
77544;SDS011;66672;50.328;7.610;2023-06-24T01:34:01;6.65;;;4.43;;
77544;SDS011;66672;50.328;7.610;2023-06-24T01:36:27;7.85;;;5.55;;
77544;SDS011;66672;50.328;7.610;2023-06-24T01:38:57;7.15;;;5.38;;
77544;SDS011;66672;50.328;7.610;2023-06-24T01:41:24;8.85;;;5.50;;
77544;SDS011;66672;50.328;7.610;2023-06-24T01:43:52;7.35;;;4.93;;
77544;SDS011;66672;50.328;7.610;2023-06-24T01:46:17;7.50;;;4.78;;
77544;SDS011;66672;50.328;7.610;2023-06-24T01:48:44;7.22;;;4.47;;
77544;SDS011;66672;50.328;7.610;2023-06-24T01:51:11;8.93;;;5.53;;
77544;SDS011;66672;50.328;7.610;2023-06-24T01:53:37;6.72;;;4.65;;
77544;SDS011;66672;50.328;7.610;2023-06-24T01:56:05;7.85;;;4.90;;
77544;SDS011;66672;50.328;7.610;2023-06-24T01:58:30;7.45;;;4.93;;
77544;SDS011;66672;50.328;7.610;2023-06-24T02:00:56;7.85;;;5.20;;
77544;SDS011;66672;50.328;7.610;2023-06-24T02:03:22;8.43;;;5.28;;
77544;SDS011;66672;50.328;7.610;2023-06-24T02:05:48;7.85;;;5.10;;
77544;SDS011;66672;50.328;7.610;2023-06-24T02:08:14;8.02;;;5.22;;
77544;SDS011;66672;50.328;7.610;2023-06-24T02:10:39;7.38;;;5.22;;
77544;SDS011;66672;50.328;7.610;2023-06-24T02:13:05;7.50;;;5.07;;
77544;SDS011;66672;50.328;7.610;2023-06-24T02:15:31;7.35;;;5.05;;
77544;SDS011;66672;50.328;7.610;2023-06-24T02:17:57;8.20;;;5.40;;
77544;SDS011;66672;50.328;7.610;2023-06-24T02:20:23;8.27;;;5.80;;
77544;SDS011;66672;50.328;7.610;2023-06-24T02:22:51;7.57;;;5.30;;
77544;SDS011;66672;50.328;7.610;2023-06-24T02:25:17;7.60;;;4.90;;
77544;SDS011;66672;50.328;7.610;2023-06-24T02:27:42;9.25;;;5.20;;
77544;SDS011;66672;50.328;7.610;2023-06-24T02:30:08;7.72;;;4.80;;
77544;SDS011;66672;50.328;7.610;2023-06-24T02:32:33;7.43;;;5.43;;
77544;SDS011;66672;50.328;7.610;2023-06-24T02:35:00;8.07;;;5.32;;
77544;SDS011;66672;50.328;7.610;2023-06-24T02:37:26;7.35;;;4.72;;
77544;SDS011;66672;50.328;7.610;2023-06-24T02:39:51;8.13;;;4.95;;
77544;SDS011;66672;50.328;7.610;2023-06-24T02:42:16;8.57;;;5.13;;
77544;SDS011;66672;50.328;7.610;2023-06-24T02:44:42;9.02;;;5.78;;
77544;SDS011;66672;50.328;7.610;2023-06-24T02:47:07;7.82;;;5.13;;
77544;SDS011;66672;50.328;7.610;2023-06-24T02:49:34;7.55;;;5.38;;
77544;SDS011;66672;50.328;7.610;2023-06-24T02:52:00;6.78;;;5.00;;
77544;SDS011;66672;50.328;7.610;2023-06-24T02:54:25;7.55;;;4.97;;
77544;SDS011;66672;50.328;7.610;2023-06-24T02:56:50;8.48;;;5.30;;
77544;SDS011;66672;50.328;7.610;2023-06-24T02:59:16;6.72;;;4.80;;
77544;SDS011;66672;50.328;7.610;2023-06-24T03:01:41;8.43;;;6.07;;
77544;SDS011;66672;50.328;7.610;2023-06-24T03:04:10;8.07;;;5.85;;
77544;SDS011;66672;50.328;7.610;2023-06-24T03:06:35;8.68;;;5.40;;
77544;SDS011;66672;50.328;7.610;2023-06-24T03:09:02;7.80;;;5.43;;
77544;SDS011;66672;50.328;7.610;2023-06-24T03:11:28;7.95;;;5.32;;
77544;SDS011;66672;50.328;7.610;2023-06-24T03:13:54;8.27;;;5.35;;
77544;SDS011;66672;50.328;7.610;2023-06-24T03:16:19;8.10;;;5.53;;
77544;SDS011;66672;50.328;7.610;2023-06-24T03:18:44;8.35;;;5.72;;
77544;SDS011;66672;50.328;7.610;2023-06-24T03:21:10;10.15;;;6.55;;
77544;SDS011;66672;50.328;7.610;2023-06-24T03:23:35;10.88;;;6.45;;
77544;SDS011;66672;50.328;7.610;2023-06-24T03:26:00;8.95;;;5.97;;
77544;SDS011;66672;50.328;7.610;2023-06-24T03:28:25;9.32;;;5.20;;
77544;SDS011;66672;50.328;7.610;2023-06-24T03:30:51;8.60;;;5.82;;
77544;SDS011;66672;50.328;7.610;2023-06-24T03:33:16;8.40;;;6.00;;
77544;SDS011;66672;50.328;7.610;2023-06-24T03:35:42;9.93;;;5.85;;
77544;SDS011;66672;50.328;7.610;2023-06-24T03:38:07;9.45;;;5.78;;
77544;SDS011;66672;50.328;7.610;2023-06-24T03:40:33;8.38;;;5.30;;
77544;SDS011;66672;50.328;7.610;2023-06-24T03:42:58;6.53;;;4.85;;
77544;SDS011;66672;50.328;7.610;2023-06-24T03:45:23;7.72;;;5.32;;
77544;SDS011;66672;50.328;7.610;2023-06-24T03:47:48;7.50;;;5.43;;
77544;SDS011;66672;50.328;7.610;2023-06-24T03:50:13;9.38;;;6.07;;
77544;SDS011;66672;50.328;7.610;2023-06-24T03:52:39;8.48;;;5.97;;
77544;SDS011;66672;50.328;7.610;2023-06-24T03:55:04;9.88;;;5.53;;
77544;SDS011;66672;50.328;7.610;2023-06-24T03:57:30;8.57;;;5.95;;
77544;SDS011;66672;50.328;7.610;2023-06-24T03:59:55;7.72;;;5.85;;
77544;SDS011;66672;50.328;7.610;2023-06-24T04:02:20;8.80;;;5.90;;
77544;SDS011;66672;50.328;7.610;2023-06-24T04:04:46;10.32;;;6.78;;
77544;SDS011;66672;50.328;7.610;2023-06-24T04:07:15;7.60;;;5.05;;
77544;SDS011;66672;50.328;7.610;2023-06-24T04:09:40;8.25;;;5.32;;
77544;SDS011;66672;50.328;7.610;2023-06-24T04:12:05;9.85;;;5.63;;
77544;SDS011;66672;50.328;7.610;2023-06-24T04:14:30;8.57;;;6.50;;
77544;SDS011;66672;50.328;7.610;2023-06-24T04:16:56;7.85;;;5.63;;
77544;SDS011;66672;50.328;7.610;2023-06-24T04:19:21;9.77;;;6.35;;
77544;SDS011;66672;50.328;7.610;2023-06-24T04:21:46;9.05;;;5.65;;
77544;SDS011;66672;50.328;7.610;2023-06-24T04:24:11;8.70;;;5.75;;
77544;SDS011;66672;50.328;7.610;2023-06-24T04:26:36;8.80;;;6.30;;
77544;SDS011;66672;50.328;7.610;2023-06-24T04:29:01;8.35;;;6.28;;
77544;SDS011;66672;50.328;7.610;2023-06-24T04:31:27;8.32;;;6.03;;
77544;SDS011;66672;50.328;7.610;2023-06-24T04:33:53;8.63;;;6.00;;
77544;SDS011;66672;50.328;7.610;2023-06-24T04:36:18;9.52;;;6.15;;
77544;SDS011;66672;50.328;7.610;2023-06-24T04:38:43;8.00;;;5.75;;
77544;SDS011;66672;50.328;7.610;2023-06-24T04:41:08;8.98;;;5.65;;
77544;SDS011;66672;50.328;7.610;2023-06-24T04:43:34;9.77;;;5.88;;
77544;SDS011;66672;50.328;7.610;2023-06-24T04:46:00;7.13;;;5.40;;
77544;SDS011;66672;50.328;7.610;2023-06-24T04:48:26;8.77;;;6.30;;
77544;SDS011;66672;50.328;7.610;2023-06-24T04:50:51;8.63;;;5.72;;
77544;SDS011;66672;50.328;7.610;2023-06-24T04:53:18;8.43;;;5.75;;
77544;SDS011;66672;50.328;7.610;2023-06-24T04:55:43;8.80;;;6.57;;
77544;SDS011;66672;50.328;7.610;2023-06-24T04:58:08;8.95;;;6.80;;
77544;SDS011;66672;50.328;7.610;2023-06-24T05:00:34;9.35;;;6.70;;
77544;SDS011;66672;50.328;7.610;2023-06-24T05:02:59;11.32;;;6.28;;
77544;SDS011;66672;50.328;7.610;2023-06-24T05:05:25;9.45;;;6.85;;
77544;SDS011;66672;50.328;7.610;2023-06-24T05:07:50;9.60;;;5.72;;
77544;SDS011;66672;50.328;7.610;2023-06-24T05:10:15;9.20;;;5.78;;
77544;SDS011;66672;50.328;7.610;2023-06-24T05:12:40;9.50;;;5.95;;
77544;SDS011;66672;50.328;7.610;2023-06-24T05:15:06;9.52;;;6.50;;
77544;SDS011;66672;50.328;7.610;2023-06-24T05:17:32;9.50;;;6.32;;
77544;SDS011;66672;50.328;7.610;2023-06-24T05:19:57;9.00;;;6.20;;
77544;SDS011;66672;50.328;7.610;2023-06-24T05:22:22;8.32;;;6.35;;
77544;SDS011;66672;50.328;7.610;2023-06-24T05:24:48;8.85;;;6.47;;
77544;SDS011;66672;50.328;7.610;2023-06-24T05:27:13;7.97;;;6.43;;
77544;SDS011;66672;50.328;7.610;2023-06-24T05:29:38;8.57;;;6.03;;
77544;SDS011;66672;50.328;7.610;2023-06-24T05:32:03;9.88;;;5.50;;
77544;SDS011;66672;50.328;7.610;2023-06-24T05:34:29;9.48;;;6.05;;
77544;SDS011;66672;50.328;7.610;2023-06-24T05:36:55;8.57;;;6.15;;
77544;SDS011;66672;50.328;7.610;2023-06-24T05:39:20;8.35;;;6.03;;
77544;SDS011;66672;50.328;7.610;2023-06-24T05:41:45;8.70;;;5.90;;
77544;SDS011;66672;50.328;7.610;2023-06-24T05:44:10;10.50;;;6.03;;
77544;SDS011;66672;50.328;7.610;2023-06-24T05:46:36;9.05;;;5.90;;
77544;SDS011;66672;50.328;7.610;2023-06-24T05:49:01;8.13;;;6.20;;
77544;SDS011;66672;50.328;7.610;2023-06-24T05:51:26;9.13;;;6.40;;
77544;SDS011;66672;50.328;7.610;2023-06-24T05:53:52;9.00;;;6.35;;
77544;SDS011;66672;50.328;7.610;2023-06-24T05:56:17;9.43;;;6.18;;
77544;SDS011;66672;50.328;7.610;2023-06-24T05:58:42;8.77;;;6.13;;
77544;SDS011;66672;50.328;7.610;2023-06-24T06:01:09;9.15;;;6.65;;
77544;SDS011;66672;50.328;7.610;2023-06-24T06:03:34;10.00;;;6.10;;
77544;SDS011;66672;50.328;7.610;2023-06-24T06:05:59;9.05;;;6.20;;
77544;SDS011;66672;50.328;7.610;2023-06-24T06:08:24;7.97;;;6.13;;
77544;SDS011;66672;50.328;7.610;2023-06-24T06:10:49;9.30;;;6.70;;
77544;SDS011;66672;50.328;7.610;2023-06-24T06:13:14;7.65;;;5.90;;
77544;SDS011;66672;50.328;7.610;2023-06-24T06:15:40;7.40;;;5.55;;
77544;SDS011;66672;50.328;7.610;2023-06-24T06:18:05;7.82;;;5.43;;
77544;SDS011;66672;50.328;7.610;2023-06-24T06:20:30;9.30;;;5.95;;
77544;SDS011;66672;50.328;7.610;2023-06-24T06:22:55;10.32;;;6.25;;
77544;SDS011;66672;50.328;7.610;2023-06-24T06:25:20;9.73;;;6.88;;
77544;SDS011;66672;50.328;7.610;2023-06-24T06:27:46;8.55;;;5.90;;
77544;SDS011;66672;50.328;7.610;2023-06-24T06:30:11;7.93;;;5.85;;
77544;SDS011;66672;50.328;7.610;2023-06-24T06:32:36;8.93;;;6.10;;
77544;SDS011;66672;50.328;7.610;2023-06-24T06:35:02;10.00;;;6.03;;
77544;SDS011;66672;50.328;7.610;2023-06-24T06:37:27;9.27;;;6.55;;
77544;SDS011;66672;50.328;7.610;2023-06-24T06:39:52;8.63;;;6.20;;
77544;SDS011;66672;50.328;7.610;2023-06-24T06:42:17;8.65;;;6.40;;
77544;SDS011;66672;50.328;7.610;2023-06-24T06:44:42;9.35;;;5.50;;
77544;SDS011;66672;50.328;7.610;2023-06-24T06:47:08;8.55;;;5.70;;
77544;SDS011;66672;50.328;7.610;2023-06-24T06:49:33;8.43;;;5.18;;
77544;SDS011;66672;50.328;7.610;2023-06-24T06:51:58;8.45;;;5.40;;
77544;SDS011;66672;50.328;7.610;2023-06-24T06:54:23;8.10;;;5.65;;
77544;SDS011;66672;50.328;7.610;2023-06-24T07:21:42;8.35;;;5.55;;
77544;SDS011;66672;50.328;7.610;2023-06-24T07:36:36;8.15;;;4.95;;
77544;SDS011;66672;50.328;7.610;2023-06-24T07:39:02;8.30;;;5.75;;
77544;SDS011;66672;50.328;7.610;2023-06-24T07:41:27;9.18;;;6.47;;
77544;SDS011;66672;50.328;7.610;2023-06-24T07:43:52;7.28;;;5.70;;
77544;SDS011;66672;50.328;7.610;2023-06-24T07:46:17;10.90;;;6.55;;
77544;SDS011;66672;50.328;7.610;2023-06-24T07:48:43;8.70;;;6.10;;
77544;SDS011;66672;50.328;7.610;2023-06-24T07:51:08;8.85;;;5.60;;
77544;SDS011;66672;50.328;7.610;2023-06-24T07:53:34;8.38;;;5.47;;
77544;SDS011;66672;50.328;7.610;2023-06-24T07:55:59;8.98;;;6.07;;
77544;SDS011;66672;50.328;7.610;2023-06-24T07:58:24;12.75;;;5.93;;
77544;SDS011;66672;50.328;7.610;2023-06-24T08:00:49;11.77;;;6.38;;
77544;SDS011;66672;50.328;7.610;2023-06-24T08:03:14;9.15;;;5.90;;
77544;SDS011;66672;50.328;7.610;2023-06-24T08:05:40;8.02;;;5.45;;
77544;SDS011;66672;50.328;7.610;2023-06-24T08:08:05;9.35;;;5.28;;
77544;SDS011;66672;50.328;7.610;2023-06-24T08:10:31;8.00;;;5.50;;
77544;SDS011;66672;50.328;7.610;2023-06-24T08:12:56;9.63;;;5.45;;
77544;SDS011;66672;50.328;7.610;2023-06-24T08:15:21;9.48;;;5.80;;
77544;SDS011;66672;50.328;7.610;2023-06-24T08:17:52;9.15;;;5.78;;
77544;SDS011;66672;50.328;7.610;2023-06-24T08:20:19;8.20;;;5.72;;
77544;SDS011;66672;50.328;7.610;2023-06-24T08:22:44;11.50;;;7.97;;
77544;SDS011;66672;50.328;7.610;2023-06-24T08:25:09;8.55;;;5.50;;
77544;SDS011;66672;50.328;7.610;2023-06-24T08:27:34;9.80;;;6.55;;
77544;SDS011;66672;50.328;7.610;2023-06-24T08:29:59;8.98;;;5.85;;
77544;SDS011;66672;50.328;7.610;2023-06-24T08:32:24;8.90;;;5.90;;
77544;SDS011;66672;50.328;7.610;2023-06-24T08:34:50;8.48;;;6.07;;
77544;SDS011;66672;50.328;7.610;2023-06-24T08:37:15;9.07;;;6.13;;
77544;SDS011;66672;50.328;7.610;2023-06-24T08:39:40;9.38;;;6.20;;
77544;SDS011;66672;50.328;7.610;2023-06-24T08:42:05;8.70;;;6.50;;
77544;SDS011;66672;50.328;7.610;2023-06-24T08:44:31;8.65;;;6.20;;
77544;SDS011;66672;50.328;7.610;2023-06-24T08:46:56;9.32;;;6.15;;
77544;SDS011;66672;50.328;7.610;2023-06-24T08:51:46;8.90;;;7.03;;
77544;SDS011;66672;50.328;7.610;2023-06-24T08:54:13;8.50;;;6.18;;
77544;SDS011;66672;50.328;7.610;2023-06-24T08:56:39;7.82;;;5.78;;
77544;SDS011;66672;50.328;7.610;2023-06-24T08:59:06;9.07;;;5.95;;
77544;SDS011;66672;50.328;7.610;2023-06-24T09:01:31;8.98;;;5.97;;
77544;SDS011;66672;50.328;7.610;2023-06-24T09:03:56;8.20;;;6.15;;
77544;SDS011;66672;50.328;7.610;2023-06-24T09:06:21;8.50;;;5.38;;
77544;SDS011;66672;50.328;7.610;2023-06-24T09:08:53;9.65;;;6.13;;
77544;SDS011;66672;50.328;7.610;2023-06-24T09:11:25;7.90;;;5.97;;
77544;SDS011;66672;50.328;7.610;2023-06-24T09:13:55;10.35;;;6.20;;
77544;SDS011;66672;50.328;7.610;2023-06-24T09:16:21;9.60;;;6.13;;
77544;SDS011;66672;50.328;7.610;2023-06-24T09:18:49;7.68;;;5.85;;
77544;SDS011;66672;50.328;7.610;2023-06-24T09:21:35;9.30;;;5.80;;
77544;SDS011;66672;50.328;7.610;2023-06-24T09:24:00;8.98;;;6.30;;
77544;SDS011;66672;50.328;7.610;2023-06-24T09:26:26;9.55;;;5.82;;
77544;SDS011;66672;50.328;7.610;2023-06-24T09:28:52;8.32;;;5.57;;
77544;SDS011;66672;50.328;7.610;2023-06-24T09:31:17;9.23;;;5.93;;
77544;SDS011;66672;50.328;7.610;2023-06-24T09:33:43;9.55;;;5.97;;
77544;SDS011;66672;50.328;7.610;2023-06-24T09:36:11;8.68;;;6.28;;
77544;SDS011;66672;50.328;7.610;2023-06-24T09:38:37;7.65;;;5.70;;
77544;SDS011;66672;50.328;7.610;2023-06-24T09:41:05;8.93;;;5.22;;
77544;SDS011;66672;50.328;7.610;2023-06-24T09:43:34;11.32;;;8.10;;
77544;SDS011;66672;50.328;7.610;2023-06-24T09:46:01;7.55;;;5.38;;
77544;SDS011;66672;50.328;7.610;2023-06-24T09:48:26;6.95;;;5.15;;
77544;SDS011;66672;50.328;7.610;2023-06-24T09:50:51;8.07;;;4.95;;
77544;SDS011;66672;50.328;7.610;2023-06-24T09:53:17;8.45;;;6.00;;
77544;SDS011;66672;50.328;7.610;2023-06-24T09:55:42;7.97;;;4.78;;
77544;SDS011;66672;50.328;7.610;2023-06-24T09:58:11;7.25;;;5.00;;
77544;SDS011;66672;50.328;7.610;2023-06-24T10:00:36;7.97;;;5.32;;
77544;SDS011;66672;50.328;7.610;2023-06-24T10:03:02;7.70;;;4.65;;
77544;SDS011;66672;50.328;7.610;2023-06-24T10:05:30;7.78;;;5.32;;
77544;SDS011;66672;50.328;7.610;2023-06-24T10:07:55;7.88;;;5.40;;
77544;SDS011;66672;50.328;7.610;2023-06-24T10:10:21;7.10;;;5.28;;
77544;SDS011;66672;50.328;7.610;2023-06-24T10:12:46;7.95;;;5.20;;
77544;SDS011;66672;50.328;7.610;2023-06-24T10:15:11;8.98;;;5.43;;
77544;SDS011;66672;50.328;7.610;2023-06-24T10:17:37;8.80;;;5.53;;
77544;SDS011;66672;50.328;7.610;2023-06-24T10:20:05;8.98;;;5.45;;
77544;SDS011;66672;50.328;7.610;2023-06-24T10:22:33;7.43;;;4.80;;
77544;SDS011;66672;50.328;7.610;2023-06-24T10:25:02;8.98;;;6.38;;
77544;SDS011;66672;50.328;7.610;2023-06-24T10:27:27;9.35;;;5.45;;
77544;SDS011;66672;50.328;7.610;2023-06-24T10:29:58;9.38;;;5.57;;
77544;SDS011;66672;50.328;7.610;2023-06-24T10:32:39;8.63;;;5.13;;
77544;SDS011;66672;50.328;7.610;2023-06-24T10:35:04;7.72;;;4.82;;
77544;SDS011;66672;50.328;7.610;2023-06-24T10:37:31;7.00;;;4.88;;
77544;SDS011;66672;50.328;7.610;2023-06-24T10:39:57;8.80;;;5.18;;
77544;SDS011;66672;50.328;7.610;2023-06-24T10:42:38;7.78;;;5.05;;
77544;SDS011;66672;50.328;7.610;2023-06-24T10:47:38;7.97;;;4.88;;
77544;SDS011;66672;50.328;7.610;2023-06-24T10:50:05;6.78;;;4.88;;
77544;SDS011;66672;50.328;7.610;2023-06-24T10:52:30;6.80;;;5.30;;
77544;SDS011;66672;50.328;7.610;2023-06-24T10:54:56;6.75;;;4.80;;
77544;SDS011;66672;50.328;7.610;2023-06-24T10:57:26;7.43;;;4.45;;
77544;SDS011;66672;50.328;7.610;2023-06-24T10:59:52;7.07;;;4.68;;
77544;SDS011;66672;50.328;7.610;2023-06-24T11:02:18;7.45;;;4.90;;
77544;SDS011;66672;50.328;7.610;2023-06-24T11:04:44;7.63;;;4.68;;
77544;SDS011;66672;50.328;7.610;2023-06-24T11:07:09;6.82;;;4.75;;
77544;SDS011;66672;50.328;7.610;2023-06-24T11:09:34;6.28;;;4.80;;
77544;SDS011;66672;50.328;7.610;2023-06-24T11:12:01;8.38;;;5.10;;
77544;SDS011;66672;50.328;7.610;2023-06-24T11:14:27;5.82;;;4.32;;
77544;SDS011;66672;50.328;7.610;2023-06-24T11:16:53;6.05;;;4.38;;
77544;SDS011;66672;50.328;7.610;2023-06-24T11:19:18;6.82;;;4.25;;
77544;SDS011;66672;50.328;7.610;2023-06-24T11:21:43;5.88;;;4.22;;
77544;SDS011;66672;50.328;7.610;2023-06-24T11:24:09;6.82;;;4.55;;
77544;SDS011;66672;50.328;7.610;2023-06-24T11:26:36;6.93;;;4.50;;
77544;SDS011;66672;50.328;7.610;2023-06-24T11:29:01;6.53;;;4.75;;
77544;SDS011;66672;50.328;7.610;2023-06-24T11:31:33;6.03;;;4.30;;
77544;SDS011;66672;50.328;7.610;2023-06-24T11:33:59;6.60;;;4.63;;
77544;SDS011;66672;50.328;7.610;2023-06-24T11:36:24;7.18;;;4.70;;
77544;SDS011;66672;50.328;7.610;2023-06-24T11:38:50;7.30;;;4.47;;
77544;SDS011;66672;50.328;7.610;2023-06-24T11:41:15;7.85;;;4.55;;
77544;SDS011;66672;50.328;7.610;2023-06-24T11:43:44;5.97;;;4.07;;
77544;SDS011;66672;50.328;7.610;2023-06-24T11:46:09;5.85;;;3.95;;
77544;SDS011;66672;50.328;7.610;2023-06-24T11:48:41;6.18;;;4.30;;
77544;SDS011;66672;50.328;7.610;2023-06-24T11:51:15;5.75;;;4.00;;
77544;SDS011;66672;50.328;7.610;2023-06-24T11:53:41;6.05;;;3.88;;
77544;SDS011;66672;50.328;7.610;2023-06-24T11:56:08;7.63;;;3.63;;
77544;SDS011;66672;50.328;7.610;2023-06-24T11:58:34;6.22;;;4.20;;
77544;SDS011;66672;50.328;7.610;2023-06-24T12:01:00;4.68;;;3.20;;
77544;SDS011;66672;50.328;7.610;2023-06-24T12:03:27;6.57;;;4.05;;
77544;SDS011;66672;50.328;7.610;2023-06-24T12:05:52;5.82;;;3.85;;
77544;SDS011;66672;50.328;7.610;2023-06-24T12:08:17;6.30;;;3.77;;
77544;SDS011;66672;50.328;7.610;2023-06-24T12:10:43;6.75;;;4.15;;
77544;SDS011;66672;50.328;7.610;2023-06-24T12:13:08;7.05;;;3.83;;
77544;SDS011;66672;50.328;7.610;2023-06-24T12:15:33;5.80;;;4.07;;
77544;SDS011;66672;50.328;7.610;2023-06-24T12:17:59;5.40;;;3.80;;
77544;SDS011;66672;50.328;7.610;2023-06-24T12:20:25;6.40;;;3.88;;
77544;SDS011;66672;50.328;7.610;2023-06-24T12:22:50;7.38;;;4.18;;
77544;SDS011;66672;50.328;7.610;2023-06-24T12:25:16;5.85;;;4.18;;
77544;SDS011;66672;50.328;7.610;2023-06-24T12:27:41;6.32;;;3.97;;
77544;SDS011;66672;50.328;7.610;2023-06-24T12:30:07;5.93;;;3.78;;
77544;SDS011;66672;50.328;7.610;2023-06-24T12:32:32;6.25;;;4.47;;
77544;SDS011;66672;50.328;7.610;2023-06-24T12:34:57;5.80;;;3.67;;
77544;SDS011;66672;50.328;7.610;2023-06-24T12:37:23;6.10;;;3.83;;
77544;SDS011;66672;50.328;7.610;2023-06-24T12:39:48;7.63;;;4.00;;
77544;SDS011;66672;50.328;7.610;2023-06-24T12:42:15;7.25;;;3.80;;
77544;SDS011;66672;50.328;7.610;2023-06-24T12:44:41;6.00;;;3.57;;
77544;SDS011;66672;50.328;7.610;2023-06-24T12:47:06;5.17;;;3.80;;
77544;SDS011;66672;50.328;7.610;2023-06-24T12:49:31;7.78;;;4.00;;
77544;SDS011;66672;50.328;7.610;2023-06-24T12:51:56;5.85;;;4.28;;
77544;SDS011;66672;50.328;7.610;2023-06-24T12:54:21;5.28;;;3.60;;
77544;SDS011;66672;50.328;7.610;2023-06-24T12:56:47;5.23;;;3.67;;
77544;SDS011;66672;50.328;7.610;2023-06-24T12:59:12;6.03;;;4.00;;
77544;SDS011;66672;50.328;7.610;2023-06-24T13:01:37;7.25;;;4.47;;
77544;SDS011;66672;50.328;7.610;2023-06-24T13:04:02;6.32;;;4.20;;
77544;SDS011;66672;50.328;7.610;2023-06-24T13:06:27;6.40;;;4.13;;
77544;SDS011;66672;50.328;7.610;2023-06-24T13:08:53;6.50;;;4.17;;
77544;SDS011;66672;50.328;7.610;2023-06-24T13:11:18;7.20;;;3.72;;
77544;SDS011;66672;50.328;7.610;2023-06-24T13:13:43;6.40;;;3.88;;
77544;SDS011;66672;50.328;7.610;2023-06-24T13:16:08;5.63;;;3.85;;
77544;SDS011;66672;50.328;7.610;2023-06-24T13:18:34;6.68;;;3.63;;
77544;SDS011;66672;50.328;7.610;2023-06-24T13:20:59;6.73;;;3.90;;
77544;SDS011;66672;50.328;7.610;2023-06-24T13:23:24;5.88;;;4.10;;
77544;SDS011;66672;50.328;7.610;2023-06-24T13:25:49;5.13;;;3.40;;
77544;SDS011;66672;50.328;7.610;2023-06-24T13:28:14;6.65;;;4.13;;
77544;SDS011;66672;50.328;7.610;2023-06-24T13:30:40;5.88;;;4.05;;
77544;SDS011;66672;50.328;7.610;2023-06-24T13:33:05;6.07;;;3.80;;
77544;SDS011;66672;50.328;7.610;2023-06-24T13:35:30;6.20;;;3.95;;
77544;SDS011;66672;50.328;7.610;2023-06-24T13:37:55;5.47;;;4.43;;
77544;SDS011;66672;50.328;7.610;2023-06-24T13:40:20;6.82;;;3.92;;
77544;SDS011;66672;50.328;7.610;2023-06-24T13:42:46;6.25;;;4.03;;
77544;SDS011;66672;50.328;7.610;2023-06-24T13:45:11;6.47;;;4.57;;
77544;SDS011;66672;50.328;7.610;2023-06-24T13:47:36;8.00;;;4.33;;
77544;SDS011;66672;50.328;7.610;2023-06-24T13:50:02;6.78;;;4.20;;
77544;SDS011;66672;50.328;7.610;2023-06-24T13:52:27;6.32;;;4.18;;
77544;SDS011;66672;50.328;7.610;2023-06-24T13:54:53;10.63;;;6.13;;
77544;SDS011;66672;50.328;7.610;2023-06-24T13:57:18;8.50;;;4.60;;
77544;SDS011;66672;50.328;7.610;2023-06-24T13:59:43;5.57;;;4.00;;
77544;SDS011;66672;50.328;7.610;2023-06-24T14:02:08;5.65;;;3.85;;
77544;SDS011;66672;50.328;7.610;2023-06-24T14:04:34;6.53;;;3.70;;
77544;SDS011;66672;50.328;7.610;2023-06-24T14:07:00;6.40;;;4.13;;
77544;SDS011;66672;50.328;7.610;2023-06-24T14:09:25;6.85;;;3.88;;
77544;SDS011;66672;50.328;7.610;2023-06-24T14:11:50;6.47;;;3.70;;
77544;SDS011;66672;50.328;7.610;2023-06-24T14:14:16;6.22;;;4.15;;
77544;SDS011;66672;50.328;7.610;2023-06-24T14:16:42;7.28;;;4.20;;
77544;SDS011;66672;50.328;7.610;2023-06-24T14:19:07;6.75;;;4.47;;
77544;SDS011;66672;50.328;7.610;2023-06-24T14:21:32;6.13;;;3.95;;
77544;SDS011;66672;50.328;7.610;2023-06-24T14:23:58;7.38;;;4.78;;
77544;SDS011;66672;50.328;7.610;2023-06-24T14:26:23;6.00;;;4.07;;
77544;SDS011;66672;50.328;7.610;2023-06-24T14:28:48;6.28;;;3.97;;
77544;SDS011;66672;50.328;7.610;2023-06-24T14:31:13;5.68;;;3.58;;
77544;SDS011;66672;50.328;7.610;2023-06-24T14:33:39;5.33;;;3.70;;
77544;SDS011;66672;50.328;7.610;2023-06-24T14:36:04;6.53;;;3.50;;
77544;SDS011;66672;50.328;7.610;2023-06-24T14:38:29;6.07;;;3.70;;
77544;SDS011;66672;50.328;7.610;2023-06-24T14:40:54;5.53;;;3.38;;
77544;SDS011;66672;50.328;7.610;2023-06-24T14:43:21;5.95;;;3.67;;
77544;SDS011;66672;50.328;7.610;2023-06-24T14:45:46;5.70;;;3.80;;
77544;SDS011;66672;50.328;7.610;2023-06-24T14:48:12;5.60;;;3.90;;
77544;SDS011;66672;50.328;7.610;2023-06-24T14:50:37;5.63;;;3.55;;
77544;SDS011;66672;50.328;7.610;2023-06-24T14:53:02;5.73;;;3.60;;
77544;SDS011;66672;50.328;7.610;2023-06-24T14:55:28;8.30;;;3.65;;
77544;SDS011;66672;50.328;7.610;2023-06-24T14:57:53;6.05;;;3.63;;
77544;SDS011;66672;50.328;7.610;2023-06-24T15:00:18;6.40;;;3.53;;
77544;SDS011;66672;50.328;7.610;2023-06-24T15:02:43;5.68;;;3.47;;
77544;SDS011;66672;50.328;7.610;2023-06-24T15:05:08;6.40;;;3.77;;
77544;SDS011;66672;50.328;7.610;2023-06-24T15:07:34;7.43;;;3.63;;
77544;SDS011;66672;50.328;7.610;2023-06-24T15:10:00;6.75;;;3.83;;
77544;SDS011;66672;50.328;7.610;2023-06-24T15:12:25;4.95;;;3.38;;
77544;SDS011;66672;50.328;7.610;2023-06-24T15:14:50;5.53;;;3.80;;
77544;SDS011;66672;50.328;7.610;2023-06-24T15:17:15;5.70;;;3.78;;
77544;SDS011;66672;50.328;7.610;2023-06-24T15:19:41;4.97;;;3.30;;
77544;SDS011;66672;50.328;7.610;2023-06-24T15:22:06;5.35;;;3.47;;
77544;SDS011;66672;50.328;7.610;2023-06-24T15:24:31;5.57;;;3.60;;
77544;SDS011;66672;50.328;7.610;2023-06-24T15:26:56;4.97;;;3.30;;
77544;SDS011;66672;50.328;7.610;2023-06-24T15:29:22;5.53;;;3.33;;
77544;SDS011;66672;50.328;7.610;2023-06-24T15:31:47;5.43;;;3.08;;